sensor_id;sensor_type;location;lat;lon;timestamp;P1;durP1;ratioP1;P2;durP2;ratioP2
2636;SDS011;1328;52.486;9.860;2022-08-19T00:00:16;34.83;;;31.80;;
2636;SDS011;1328;52.486;9.860;2022-08-19T00:02:43;36.67;;;33.73;;
2636;SDS011;1328;52.486;9.860;2022-08-19T00:05:11;36.87;;;33.80;;
2636;SDS011;1328;52.486;9.860;2022-08-19T00:07:37;39.40;;;36.43;;
2636;SDS011;1328;52.486;9.860;2022-08-19T00:10:04;34.10;;;31.43;;
2636;SDS011;1328;52.486;9.860;2022-08-19T00:12:31;35.73;;;33.00;;
2636;SDS011;1328;52.486;9.860;2022-08-19T00:14:57;35.73;;;33.13;;
2636;SDS011;1328;52.486;9.860;2022-08-19T00:17:23;37.03;;;34.20;;
2636;SDS011;1328;52.486;9.860;2022-08-19T00:19:49;36.30;;;33.30;;
2636;SDS011;1328;52.486;9.860;2022-08-19T00:22:15;34.93;;;32.33;;
2636;SDS011;1328;52.486;9.860;2022-08-19T00:24:43;31.77;;;29.17;;
2636;SDS011;1328;52.486;9.860;2022-08-19T00:27:10;33.97;;;31.00;;
2636;SDS011;1328;52.486;9.860;2022-08-19T00:29:36;32.83;;;30.03;;
2636;SDS011;1328;52.486;9.860;2022-08-19T00:32:03;31.23;;;28.40;;
2636;SDS011;1328;52.486;9.860;2022-08-19T00:34:29;32.60;;;29.80;;
2636;SDS011;1328;52.486;9.860;2022-08-19T00:36:56;30.60;;;27.53;;
2636;SDS011;1328;52.486;9.860;2022-08-19T00:39:22;31.53;;;28.77;;
2636;SDS011;1328;52.486;9.860;2022-08-19T00:41:49;30.27;;;27.87;;
2636;SDS011;1328;52.486;9.860;2022-08-19T00:44:22;30.57;;;27.73;;
2636;SDS011;1328;52.486;9.860;2022-08-19T00:46:49;29.17;;;26.47;;
2636;SDS011;1328;52.486;9.860;2022-08-19T00:49:20;30.07;;;27.67;;
2636;SDS011;1328;52.486;9.860;2022-08-19T00:51:50;29.20;;;26.73;;
2636;SDS011;1328;52.486;9.860;2022-08-19T00:54:17;30.90;;;28.30;;
2636;SDS011;1328;52.486;9.860;2022-08-19T00:56:44;29.17;;;26.20;;
2636;SDS011;1328;52.486;9.860;2022-08-19T00:59:10;27.43;;;25.03;;
2636;SDS011;1328;52.486;9.860;2022-08-19T01:01:37;28.00;;;25.80;;
2636;SDS011;1328;52.486;9.860;2022-08-19T01:04:03;28.17;;;25.57;;
2636;SDS011;1328;52.486;9.860;2022-08-19T01:06:30;26.80;;;24.70;;
2636;SDS011;1328;52.486;9.860;2022-08-19T01:08:57;27.07;;;24.70;;
2636;SDS011;1328;52.486;9.860;2022-08-19T01:11:23;26.20;;;24.10;;
2636;SDS011;1328;52.486;9.860;2022-08-19T01:13:50;25.77;;;23.80;;
2636;SDS011;1328;52.486;9.860;2022-08-19T01:16:17;26.20;;;24.10;;
2636;SDS011;1328;52.486;9.860;2022-08-19T01:18:44;27.93;;;25.63;;
2636;SDS011;1328;52.486;9.860;2022-08-19T01:21:12;26.50;;;24.40;;
2636;SDS011;1328;52.486;9.860;2022-08-19T01:23:42;25.07;;;22.97;;
2636;SDS011;1328;52.486;9.860;2022-08-19T01:26:10;26.53;;;24.33;;
2636;SDS011;1328;52.486;9.860;2022-08-19T01:28:37;27.40;;;25.20;;
2636;SDS011;1328;52.486;9.860;2022-08-19T01:31:04;26.03;;;24.03;;
2636;SDS011;1328;52.486;9.860;2022-08-19T01:33:30;26.37;;;24.00;;
2636;SDS011;1328;52.486;9.860;2022-08-19T01:36:03;26.57;;;24.37;;
2636;SDS011;1328;52.486;9.860;2022-08-19T01:38:30;28.17;;;25.47;;
2636;SDS011;1328;52.486;9.860;2022-08-19T01:40:56;26.70;;;24.43;;
2636;SDS011;1328;52.486;9.860;2022-08-19T01:43:23;25.90;;;23.80;;
2636;SDS011;1328;52.486;9.860;2022-08-19T01:45:49;26.43;;;24.20;;
2636;SDS011;1328;52.486;9.860;2022-08-19T01:48:15;26.00;;;23.80;;
2636;SDS011;1328;52.486;9.860;2022-08-19T01:50:42;27.73;;;25.53;;
2636;SDS011;1328;52.486;9.860;2022-08-19T01:53:09;26.73;;;24.63;;
2636;SDS011;1328;52.486;9.860;2022-08-19T01:55:37;26.97;;;24.50;;
2636;SDS011;1328;52.486;9.860;2022-08-19T01:58:03;27.70;;;25.20;;
2636;SDS011;1328;52.486;9.860;2022-08-19T02:00:31;27.07;;;24.60;;
2636;SDS011;1328;52.486;9.860;2022-08-19T02:02:57;28.00;;;25.70;;
2636;SDS011;1328;52.486;9.860;2022-08-19T02:05:24;28.13;;;25.63;;
2636;SDS011;1328;52.486;9.860;2022-08-19T02:07:50;26.57;;;24.17;;
2636;SDS011;1328;52.486;9.860;2022-08-19T02:10:18;27.80;;;25.40;;
2636;SDS011;1328;52.486;9.860;2022-08-19T02:12:46;28.47;;;25.70;;
2636;SDS011;1328;52.486;9.860;2022-08-19T02:15:12;26.87;;;24.37;;
2636;SDS011;1328;52.486;9.860;2022-08-19T02:17:38;27.30;;;24.60;;
2636;SDS011;1328;52.486;9.860;2022-08-19T02:20:05;28.53;;;26.00;;
2636;SDS011;1328;52.486;9.860;2022-08-19T02:22:32;27.03;;;24.50;;
2636;SDS011;1328;52.486;9.860;2022-08-19T02:24:58;28.50;;;26.10;;
2636;SDS011;1328;52.486;9.860;2022-08-19T02:27:24;27.47;;;25.07;;
2636;SDS011;1328;52.486;9.860;2022-08-19T02:29:51;27.47;;;25.27;;
2636;SDS011;1328;52.486;9.860;2022-08-19T02:32:18;27.77;;;25.37;;
2636;SDS011;1328;52.486;9.860;2022-08-19T02:34:44;28.00;;;25.30;;
2636;SDS011;1328;52.486;9.860;2022-08-19T02:37:11;27.80;;;25.20;;
2636;SDS011;1328;52.486;9.860;2022-08-19T02:39:57;27.90;;;25.40;;
2636;SDS011;1328;52.486;9.860;2022-08-19T02:42:23;28.40;;;26.00;;
2636;SDS011;1328;52.486;9.860;2022-08-19T02:44:49;27.67;;;25.37;;
2636;SDS011;1328;52.486;9.860;2022-08-19T02:47:16;28.97;;;26.53;;
2636;SDS011;1328;52.486;9.860;2022-08-19T02:49:43;29.70;;;27.10;;
2636;SDS011;1328;52.486;9.860;2022-08-19T02:52:09;29.93;;;27.20;;
2636;SDS011;1328;52.486;9.860;2022-08-19T02:54:36;30.43;;;27.40;;
2636;SDS011;1328;52.486;9.860;2022-08-19T02:57:03;29.50;;;26.97;;
2636;SDS011;1328;52.486;9.860;2022-08-19T02:59:30;28.43;;;26.10;;
2636;SDS011;1328;52.486;9.860;2022-08-19T03:01:56;29.60;;;27.10;;
2636;SDS011;1328;52.486;9.860;2022-08-19T03:04:23;29.13;;;26.73;;
2636;SDS011;1328;52.486;9.860;2022-08-19T03:06:49;30.13;;;27.57;;
2636;SDS011;1328;52.486;9.860;2022-08-19T03:09:16;29.23;;;26.40;;
2636;SDS011;1328;52.486;9.860;2022-08-19T03:11:43;28.90;;;26.00;;
2636;SDS011;1328;52.486;9.860;2022-08-19T03:14:09;30.10;;;27.47;;
2636;SDS011;1328;52.486;9.860;2022-08-19T03:16:52;29.40;;;26.77;;
2636;SDS011;1328;52.486;9.860;2022-08-19T03:19:19;27.97;;;25.47;;
2636;SDS011;1328;52.486;9.860;2022-08-19T03:21:46;28.20;;;25.90;;
2636;SDS011;1328;52.486;9.860;2022-08-19T03:24:13;28.53;;;26.13;;
2636;SDS011;1328;52.486;9.860;2022-08-19T03:26:43;29.43;;;26.77;;
2636;SDS011;1328;52.486;9.860;2022-08-19T03:29:10;27.50;;;25.10;;
2636;SDS011;1328;52.486;9.860;2022-08-19T03:31:36;28.60;;;26.10;;
2636;SDS011;1328;52.486;9.860;2022-08-19T03:34:04;30.60;;;25.93;;
2636;SDS011;1328;52.486;9.860;2022-08-19T03:36:30;27.27;;;24.83;;
2636;SDS011;1328;52.486;9.860;2022-08-19T03:38:57;27.00;;;24.60;;
2636;SDS011;1328;52.486;9.860;2022-08-19T03:41:28;27.03;;;24.30;;
2636;SDS011;1328;52.486;9.860;2022-08-19T03:43:55;27.33;;;24.53;;
2636;SDS011;1328;52.486;9.860;2022-08-19T03:46:24;25.50;;;23.30;;
2636;SDS011;1328;52.486;9.860;2022-08-19T03:48:51;26.53;;;23.73;;
2636;SDS011;1328;52.486;9.860;2022-08-19T03:51:23;25.20;;;22.80;;
2636;SDS011;1328;52.486;9.860;2022-08-19T03:53:50;25.53;;;22.93;;
2636;SDS011;1328;52.486;9.860;2022-08-19T03:56:16;24.40;;;22.27;;
2636;SDS011;1328;52.486;9.860;2022-08-19T03:58:42;25.70;;;23.00;;
2636;SDS011;1328;52.486;9.860;2022-08-19T04:01:13;24.77;;;22.37;;
2636;SDS011;1328;52.486;9.860;2022-08-19T04:03:39;23.27;;;20.80;;
2636;SDS011;1328;52.486;9.860;2022-08-19T04:06:13;23.00;;;20.80;;
2636;SDS011;1328;52.486;9.860;2022-08-19T04:08:43;23.53;;;21.47;;
2636;SDS011;1328;52.486;9.860;2022-08-19T04:11:10;23.70;;;21.33;;
2636;SDS011;1328;52.486;9.860;2022-08-19T04:13:37;23.43;;;21.13;;
2636;SDS011;1328;52.486;9.860;2022-08-19T04:16:03;22.77;;;20.63;;
2636;SDS011;1328;52.486;9.860;2022-08-19T04:18:30;23.27;;;20.80;;
2636;SDS011;1328;52.486;9.860;2022-08-19T04:20:56;21.63;;;19.53;;
2636;SDS011;1328;52.486;9.860;2022-08-19T04:23:23;22.30;;;20.20;;
2636;SDS011;1328;52.486;9.860;2022-08-19T04:25:49;23.43;;;20.20;;
2636;SDS011;1328;52.486;9.860;2022-08-19T04:28:15;23.10;;;20.40;;
2636;SDS011;1328;52.486;9.860;2022-08-19T04:30:42;22.83;;;19.60;;
2636;SDS011;1328;52.486;9.860;2022-08-19T04:33:09;20.07;;;18.07;;
2636;SDS011;1328;52.486;9.860;2022-08-19T04:35:36;22.13;;;19.90;;
2636;SDS011;1328;52.486;9.860;2022-08-19T04:38:03;21.97;;;19.80;;
2636;SDS011;1328;52.486;9.860;2022-08-19T04:40:29;23.07;;;20.67;;
2636;SDS011;1328;52.486;9.860;2022-08-19T04:43:14;22.33;;;20.23;;
2636;SDS011;1328;52.486;9.860;2022-08-19T04:45:40;22.13;;;19.70;;
2636;SDS011;1328;52.486;9.860;2022-08-19T04:48:07;21.50;;;19.33;;
2636;SDS011;1328;52.486;9.860;2022-08-19T04:50:33;22.03;;;19.77;;
2636;SDS011;1328;52.486;9.860;2022-08-19T04:52:59;23.10;;;19.20;;
2636;SDS011;1328;52.486;9.860;2022-08-19T04:55:25;22.70;;;20.50;;
2636;SDS011;1328;52.486;9.860;2022-08-19T04:57:52;23.37;;;20.97;;
2636;SDS011;1328;52.486;9.860;2022-08-19T05:00:18;23.33;;;19.93;;
2636;SDS011;1328;52.486;9.860;2022-08-19T05:02:44;25.20;;;22.50;;
2636;SDS011;1328;52.486;9.860;2022-08-19T05:05:10;22.60;;;20.20;;
2636;SDS011;1328;52.486;9.860;2022-08-19T05:07:37;23.07;;;20.77;;
2636;SDS011;1328;52.486;9.860;2022-08-19T05:10:04;23.90;;;21.53;;
2636;SDS011;1328;52.486;9.860;2022-08-19T05:12:31;24.97;;;22.47;;
2636;SDS011;1328;52.486;9.860;2022-08-19T05:14:57;25.03;;;22.53;;
2636;SDS011;1328;52.486;9.860;2022-08-19T05:17:25;24.53;;;21.97;;
2636;SDS011;1328;52.486;9.860;2022-08-19T05:19:51;24.83;;;22.33;;
2636;SDS011;1328;52.486;9.860;2022-08-19T05:22:36;24.00;;;21.77;;
2636;SDS011;1328;52.486;9.860;2022-08-19T05:25:09;24.33;;;22.17;;
2636;SDS011;1328;52.486;9.860;2022-08-19T05:27:37;24.10;;;21.57;;
2636;SDS011;1328;52.486;9.860;2022-08-19T05:30:03;25.47;;;23.13;;
2636;SDS011;1328;52.486;9.860;2022-08-19T05:32:29;24.10;;;21.60;;
2636;SDS011;1328;52.486;9.860;2022-08-19T05:34:55;23.83;;;21.63;;
2636;SDS011;1328;52.486;9.860;2022-08-19T05:37:21;25.07;;;22.70;;
2636;SDS011;1328;52.486;9.860;2022-08-19T05:39:47;24.77;;;22.37;;
2636;SDS011;1328;52.486;9.860;2022-08-19T05:42:14;25.57;;;23.10;;
2636;SDS011;1328;52.486;9.860;2022-08-19T05:44:42;25.10;;;22.60;;
2636;SDS011;1328;52.486;9.860;2022-08-19T05:47:13;25.63;;;23.03;;
2636;SDS011;1328;52.486;9.860;2022-08-19T05:49:39;23.77;;;21.30;;
2636;SDS011;1328;52.486;9.860;2022-08-19T05:52:06;25.80;;;23.23;;
2636;SDS011;1328;52.486;9.860;2022-08-19T05:54:33;25.37;;;22.90;;
2636;SDS011;1328;52.486;9.860;2022-08-19T05:57:01;24.63;;;22.13;;
2636;SDS011;1328;52.486;9.860;2022-08-19T05:59:27;26.13;;;23.50;;
2636;SDS011;1328;52.486;9.860;2022-08-19T06:01:55;26.10;;;23.60;;
2636;SDS011;1328;52.486;9.860;2022-08-19T06:04:22;27.50;;;24.90;;
2636;SDS011;1328;52.486;9.860;2022-08-19T06:06:50;28.47;;;25.70;;
2636;SDS011;1328;52.486;9.860;2022-08-19T06:09:17;29.50;;;26.70;;
2636;SDS011;1328;52.486;9.860;2022-08-19T06:11:44;27.37;;;24.87;;
2636;SDS011;1328;52.486;9.860;2022-08-19T06:14:13;28.20;;;25.60;;
2636;SDS011;1328;52.486;9.860;2022-08-19T06:16:40;28.57;;;26.13;;
2636;SDS011;1328;52.486;9.860;2022-08-19T06:19:08;28.57;;;26.03;;
2636;SDS011;1328;52.486;9.860;2022-08-19T06:21:35;29.97;;;27.40;;
2636;SDS011;1328;52.486;9.860;2022-08-19T06:24:02;30.37;;;27.83;;
2636;SDS011;1328;52.486;9.860;2022-08-19T06:26:29;29.27;;;26.77;;
2636;SDS011;1328;52.486;9.860;2022-08-19T06:28:55;31.47;;;28.60;;
2636;SDS011;1328;52.486;9.860;2022-08-19T06:31:23;28.57;;;25.93;;
2636;SDS011;1328;52.486;9.860;2022-08-19T06:33:50;29.17;;;26.30;;
2636;SDS011;1328;52.486;9.860;2022-08-19T06:36:29;27.30;;;25.00;;
2636;SDS011;1328;52.486;9.860;2022-08-19T06:38:59;29.17;;;26.03;;
2636;SDS011;1328;52.486;9.860;2022-08-19T06:41:26;28.33;;;25.80;;
2636;SDS011;1328;52.486;9.860;2022-08-19T06:43:53;30.47;;;27.70;;
2636;SDS011;1328;52.486;9.860;2022-08-19T06:46:19;33.23;;;30.63;;
2636;SDS011;1328;52.486;9.860;2022-08-19T06:48:46;34.47;;;31.47;;
2636;SDS011;1328;52.486;9.860;2022-08-19T06:51:16;38.20;;;35.23;;
2636;SDS011;1328;52.486;9.860;2022-08-19T06:53:49;40.80;;;37.83;;
2636;SDS011;1328;52.486;9.860;2022-08-19T06:56:16;39.37;;;36.13;;
2636;SDS011;1328;52.486;9.860;2022-08-19T06:58:42;43.97;;;40.73;;
2636;SDS011;1328;52.486;9.860;2022-08-19T07:01:09;51.37;;;47.57;;
2636;SDS011;1328;52.486;9.860;2022-08-19T07:03:35;53.90;;;50.20;;
2636;SDS011;1328;52.486;9.860;2022-08-19T07:06:09;68.80;;;64.50;;
2636;SDS011;1328;52.486;9.860;2022-08-19T07:08:35;65.90;;;61.97;;
2636;SDS011;1328;52.486;9.860;2022-08-19T07:11:11;69.00;;;64.70;;
2636;SDS011;1328;52.486;9.860;2022-08-19T07:13:38;76.27;;;71.67;;
2636;SDS011;1328;52.486;9.860;2022-08-19T07:16:09;89.70;;;84.60;;
2636;SDS011;1328;52.486;9.860;2022-08-19T07:18:35;110.17;;;104.37;;
2636;SDS011;1328;52.486;9.860;2022-08-19T07:21:05;140.20;;;133.27;;
2636;SDS011;1328;52.486;9.860;2022-08-19T07:23:32;138.30;;;130.87;;
2636;SDS011;1328;52.486;9.860;2022-08-19T07:25:58;158.57;;;150.60;;
2636;SDS011;1328;52.486;9.860;2022-08-19T07:28:29;150.63;;;143.33;;
2636;SDS011;1328;52.486;9.860;2022-08-19T07:30:55;184.10;;;175.37;;
2636;SDS011;1328;52.486;9.860;2022-08-19T07:33:21;163.20;;;155.53;;
2636;SDS011;1328;52.486;9.860;2022-08-19T07:35:47;169.60;;;161.47;;
2636;SDS011;1328;52.486;9.860;2022-08-19T07:38:15;163.60;;;155.67;;
2636;SDS011;1328;52.486;9.860;2022-08-19T07:40:41;176.60;;;168.10;;
2636;SDS011;1328;52.486;9.860;2022-08-19T07:43:08;220.13;;;209.53;;
2636;SDS011;1328;52.486;9.860;2022-08-19T07:45:34;287.40;;;274.33;;
2636;SDS011;1328;52.486;9.860;2022-08-19T07:48:00;349.57;;;334.23;;
2636;SDS011;1328;52.486;9.860;2022-08-19T07:50:26;497.07;;;474.90;;
2636;SDS011;1328;52.486;9.860;2022-08-19T07:52:52;510.77;;;487.53;;
2636;SDS011;1328;52.486;9.860;2022-08-19T07:55:20;499.23;;;476.97;;
2636;SDS011;1328;52.486;9.860;2022-08-19T07:57:46;601.20;;;573.23;;
2636;SDS011;1328;52.486;9.860;2022-08-19T08:00:12;630.93;;;600.83;;
2636;SDS011;1328;52.486;9.860;2022-08-19T08:02:39;630.10;;;599.70;;
2636;SDS011;1328;52.486;9.860;2022-08-19T08:05:07;599.63;;;571.40;;
2636;SDS011;1328;52.486;9.860;2022-08-19T08:07:52;587.00;;;559.07;;
2636;SDS011;1328;52.486;9.860;2022-08-19T08:10:37;588.53;;;560.83;;
2636;SDS011;1328;52.486;9.860;2022-08-19T08:13:03;651.40;;;618.80;;
2636;SDS011;1328;52.486;9.860;2022-08-19T08:15:30;754.40;;;715.53;;
2636;SDS011;1328;52.486;9.860;2022-08-19T08:17:56;762.37;;;721.30;;
2636;SDS011;1328;52.486;9.860;2022-08-19T08:20:23;888.53;;;836.73;;
2636;SDS011;1328;52.486;9.860;2022-08-19T08:22:49;927.37;;;871.87;;
2636;SDS011;1328;52.486;9.860;2022-08-19T08:25:34;991.67;;;932.27;;
2636;SDS011;1328;52.486;9.860;2022-08-19T08:28:01;997.93;;;935.13;;
2636;SDS011;1328;52.486;9.860;2022-08-19T08:30:28;1077.93;;;999.90;;
2636;SDS011;1328;52.486;9.860;2022-08-19T08:32:55;1047.73;;;978.80;;
2636;SDS011;1328;52.486;9.860;2022-08-19T08:35:22;1030.07;;;965.07;;
2636;SDS011;1328;52.486;9.860;2022-08-19T08:37:48;986.33;;;924.57;;
2636;SDS011;1328;52.486;9.860;2022-08-19T08:40:19;953.90;;;894.70;;
2636;SDS011;1328;52.486;9.860;2022-08-19T08:42:54;1010.40;;;949.17;;
2636;SDS011;1328;52.486;9.860;2022-08-19T08:45:25;976.30;;;916.90;;
2636;SDS011;1328;52.486;9.860;2022-08-19T08:47:51;977.77;;;916.47;;
2636;SDS011;1328;52.486;9.860;2022-08-19T08:50:21;1051.70;;;983.03;;
2636;SDS011;1328;52.486;9.860;2022-08-19T08:52:50;1091.47;;;999.90;;
2636;SDS011;1328;52.486;9.860;2022-08-19T08:55:19;1038.70;;;971.93;;
2636;SDS011;1328;52.486;9.860;2022-08-19T09:00:17;1045.37;;;975.70;;
2636;SDS011;1328;52.486;9.860;2022-08-19T09:02:44;1068.60;;;995.73;;
2636;SDS011;1328;52.486;9.860;2022-08-19T09:05:11;1072.83;;;999.13;;
2636;SDS011;1328;52.486;9.860;2022-08-19T09:12:57;1064.90;;;994.80;;
2636;SDS011;1328;52.486;9.860;2022-08-19T09:15:32;1040.00;;;972.67;;
2636;SDS011;1328;52.486;9.860;2022-08-19T09:18:03;1035.60;;;969.83;;
2636;SDS011;1328;52.486;9.860;2022-08-19T09:20:29;1032.00;;;966.37;;
2636;SDS011;1328;52.486;9.860;2022-08-19T09:22:56;1052.73;;;986.33;;
2636;SDS011;1328;52.486;9.860;2022-08-19T09:25:23;1082.97;;;999.90;;
2636;SDS011;1328;52.486;9.860;2022-08-19T09:27:50;1131.13;;;999.90;;
2636;SDS011;1328;52.486;9.860;2022-08-19T09:30:22;1131.10;;;999.90;;
2636;SDS011;1328;52.486;9.860;2022-08-19T09:32:49;1122.90;;;999.90;;
2636;SDS011;1328;52.486;9.860;2022-08-19T09:35:17;1143.03;;;999.90;;
2636;SDS011;1328;52.486;9.860;2022-08-19T09:37:44;1100.87;;;999.90;;
2636;SDS011;1328;52.486;9.860;2022-08-19T09:40:11;1097.80;;;999.90;;
2636;SDS011;1328;52.486;9.860;2022-08-19T09:42:37;1093.67;;;999.90;;
2636;SDS011;1328;52.486;9.860;2022-08-19T09:45:03;1125.23;;;999.90;;
2636;SDS011;1328;52.486;9.860;2022-08-19T09:47:29;1208.63;;;999.90;;
2636;SDS011;1328;52.486;9.860;2022-08-19T09:49:57;1227.23;;;999.90;;
2636;SDS011;1328;52.486;9.860;2022-08-19T09:52:23;1209.67;;;999.90;;
2636;SDS011;1328;52.486;9.860;2022-08-19T09:54:51;1219.43;;;999.90;;
2636;SDS011;1328;52.486;9.860;2022-08-19T09:57:18;1227.13;;;999.90;;
2636;SDS011;1328;52.486;9.860;2022-08-19T09:59:44;1216.50;;;999.90;;
2636;SDS011;1328;52.486;9.860;2022-08-19T10:02:10;1228.30;;;999.90;;
2636;SDS011;1328;52.486;9.860;2022-08-19T10:04:36;1230.13;;;999.90;;
2636;SDS011;1328;52.486;9.860;2022-08-19T10:07:21;1255.47;;;999.90;;
2636;SDS011;1328;52.486;9.860;2022-08-19T10:09:47;1268.63;;;999.90;;
2636;SDS011;1328;52.486;9.860;2022-08-19T10:12:13;1240.23;;;999.90;;
2636;SDS011;1328;52.486;9.860;2022-08-19T10:14:40;1204.70;;;999.90;;
2636;SDS011;1328;52.486;9.860;2022-08-19T10:17:07;1099.40;;;999.90;;
2636;SDS011;1328;52.486;9.860;2022-08-19T10:19:33;995.83;;;929.87;;
2636;SDS011;1328;52.486;9.860;2022-08-19T10:22:04;1064.03;;;991.53;;
2636;SDS011;1328;52.486;9.860;2022-08-19T10:24:30;1108.57;;;999.90;;
2636;SDS011;1328;52.486;9.860;2022-08-19T10:26:58;1111.10;;;999.90;;
2636;SDS011;1328;52.486;9.860;2022-08-19T10:29:24;1204.90;;;999.90;;
2636;SDS011;1328;52.486;9.860;2022-08-19T10:31:52;1263.53;;;999.90;;
2636;SDS011;1328;52.486;9.860;2022-08-19T10:34:19;1272.60;;;999.90;;
2636;SDS011;1328;52.486;9.860;2022-08-19T10:36:45;1139.00;;;999.90;;
2636;SDS011;1328;52.486;9.860;2022-08-19T10:39:11;1247.03;;;999.90;;
2636;SDS011;1328;52.486;9.860;2022-08-19T10:41:38;1214.80;;;999.90;;
2636;SDS011;1328;52.486;9.860;2022-08-19T10:44:06;1208.53;;;999.90;;
2636;SDS011;1328;52.486;9.860;2022-08-19T10:46:33;1200.90;;;999.90;;
2636;SDS011;1328;52.486;9.860;2022-08-19T10:49:00;1161.90;;;999.90;;
2636;SDS011;1328;52.486;9.860;2022-08-19T10:51:26;1136.00;;;999.90;;
2636;SDS011;1328;52.486;9.860;2022-08-19T10:54:11;1230.90;;;999.90;;
2636;SDS011;1328;52.486;9.860;2022-08-19T10:56:38;1220.43;;;999.90;;
2636;SDS011;1328;52.486;9.860;2022-08-19T10:59:17;1231.00;;;999.90;;
2636;SDS011;1328;52.486;9.860;2022-08-19T11:01:44;1245.27;;;999.90;;
2636;SDS011;1328;52.486;9.860;2022-08-19T11:04:11;1231.87;;;999.90;;
2636;SDS011;1328;52.486;9.860;2022-08-19T11:06:39;1177.07;;;999.90;;
2636;SDS011;1328;52.486;9.860;2022-08-19T11:09:07;1182.63;;;999.90;;
2636;SDS011;1328;52.486;9.860;2022-08-19T11:11:33;1155.83;;;999.90;;
2636;SDS011;1328;52.486;9.860;2022-08-19T11:14:06;1134.60;;;999.90;;
2636;SDS011;1328;52.486;9.860;2022-08-19T11:16:32;1085.17;;;999.90;;
2636;SDS011;1328;52.486;9.860;2022-08-19T11:18:59;1130.83;;;999.90;;
2636;SDS011;1328;52.486;9.860;2022-08-19T11:21:26;1113.13;;;999.90;;
2636;SDS011;1328;52.486;9.860;2022-08-19T11:23:54;984.13;;;915.10;;
2636;SDS011;1328;52.486;9.860;2022-08-19T11:26:21;1163.67;;;999.90;;
2636;SDS011;1328;52.486;9.860;2022-08-19T11:28:47;1151.27;;;999.90;;
2636;SDS011;1328;52.486;9.860;2022-08-19T11:31:16;1016.27;;;948.20;;
2636;SDS011;1328;52.486;9.860;2022-08-19T11:33:43;1056.70;;;985.43;;
2636;SDS011;1328;52.486;9.860;2022-08-19T11:36:10;1108.60;;;999.90;;
2636;SDS011;1328;52.486;9.860;2022-08-19T11:38:36;1068.53;;;995.67;;
2636;SDS011;1328;52.486;9.860;2022-08-19T11:41:04;1036.40;;;968.93;;
2636;SDS011;1328;52.486;9.860;2022-08-19T11:43:30;991.90;;;928.47;;
2636;SDS011;1328;52.486;9.860;2022-08-19T11:45:56;776.73;;;731.77;;
2636;SDS011;1328;52.486;9.860;2022-08-19T11:48:23;776.63;;;729.77;;
2636;SDS011;1328;52.486;9.860;2022-08-19T11:50:49;699.87;;;659.30;;
2636;SDS011;1328;52.486;9.860;2022-08-19T11:53:16;521.00;;;491.70;;
2636;SDS011;1328;52.486;9.860;2022-08-19T11:55:43;410.70;;;387.90;;
2636;SDS011;1328;52.486;9.860;2022-08-19T11:58:10;473.40;;;447.50;;
2636;SDS011;1328;52.486;9.860;2022-08-19T12:00:36;400.83;;;378.50;;
2636;SDS011;1328;52.486;9.860;2022-08-19T12:03:03;396.97;;;374.83;;
2636;SDS011;1328;52.486;9.860;2022-08-19T12:05:29;407.23;;;382.47;;
2636;SDS011;1328;52.486;9.860;2022-08-19T12:07:55;429.20;;;405.37;;
2636;SDS011;1328;52.486;9.860;2022-08-19T12:10:21;418.10;;;389.73;;
2636;SDS011;1328;52.486;9.860;2022-08-19T12:12:47;546.60;;;517.17;;
2636;SDS011;1328;52.486;9.860;2022-08-19T12:15:14;496.00;;;462.87;;
2636;SDS011;1328;52.486;9.860;2022-08-19T12:17:40;567.87;;;536.27;;
2636;SDS011;1328;52.486;9.860;2022-08-19T12:20:07;566.30;;;533.47;;
2636;SDS011;1328;52.486;9.860;2022-08-19T12:22:34;558.50;;;526.47;;
2636;SDS011;1328;52.486;9.860;2022-08-19T12:25:00;519.97;;;490.63;;
2636;SDS011;1328;52.486;9.860;2022-08-19T12:27:26;535.30;;;505.13;;
2636;SDS011;1328;52.486;9.860;2022-08-19T12:29:52;314.07;;;293.80;;
2636;SDS011;1328;52.486;9.860;2022-08-19T12:32:19;632.10;;;595.73;;
2636;SDS011;1328;52.486;9.860;2022-08-19T12:34:46;535.33;;;505.03;;
2636;SDS011;1328;52.486;9.860;2022-08-19T12:37:12;631.63;;;596.40;;
2636;SDS011;1328;52.486;9.860;2022-08-19T12:39:39;585.43;;;543.80;;
2636;SDS011;1328;52.486;9.860;2022-08-19T12:42:06;587.70;;;553.80;;
2636;SDS011;1328;52.486;9.860;2022-08-19T12:44:33;573.37;;;540.87;;
2636;SDS011;1328;52.486;9.860;2022-08-19T12:46:59;264.17;;;246.10;;
2636;SDS011;1328;52.486;9.860;2022-08-19T12:49:29;525.03;;;493.47;;
2636;SDS011;1328;52.486;9.860;2022-08-19T12:51:58;609.43;;;574.70;;
2636;SDS011;1328;52.486;9.860;2022-08-19T12:54:25;496.17;;;467.67;;
2636;SDS011;1328;52.486;9.860;2022-08-19T12:56:51;591.73;;;558.50;;
2636;SDS011;1328;52.486;9.860;2022-08-19T12:59:17;570.63;;;538.87;;
2636;SDS011;1328;52.486;9.860;2022-08-19T13:01:43;625.53;;;590.00;;
2636;SDS011;1328;52.486;9.860;2022-08-19T13:04:10;596.80;;;562.67;;
2636;SDS011;1328;52.486;9.860;2022-08-19T13:06:37;551.57;;;520.00;;
2636;SDS011;1328;52.486;9.860;2022-08-19T13:09:03;564.97;;;532.67;;
2636;SDS011;1328;52.486;9.860;2022-08-19T13:11:30;529.27;;;499.30;;
2636;SDS011;1328;52.486;9.860;2022-08-19T13:13:58;455.30;;;429.90;;
2636;SDS011;1328;52.486;9.860;2022-08-19T13:16:25;413.13;;;389.53;;
2636;SDS011;1328;52.486;9.860;2022-08-19T13:18:53;384.43;;;362.93;;
2636;SDS011;1328;52.486;9.860;2022-08-19T13:21:20;455.63;;;430.33;;
2636;SDS011;1328;52.486;9.860;2022-08-19T13:23:47;477.47;;;451.93;;
2636;SDS011;1328;52.486;9.860;2022-08-19T13:26:14;510.60;;;483.17;;
2636;SDS011;1328;52.486;9.860;2022-08-19T13:28:40;511.57;;;484.27;;
2636;SDS011;1328;52.486;9.860;2022-08-19T13:31:26;405.70;;;384.00;;
2636;SDS011;1328;52.486;9.860;2022-08-19T13:34:12;416.23;;;393.93;;
2636;SDS011;1328;52.486;9.860;2022-08-19T13:36:38;404.97;;;383.07;;
2636;SDS011;1328;52.486;9.860;2022-08-19T13:39:05;368.87;;;347.33;;
2636;SDS011;1328;52.486;9.860;2022-08-19T13:41:32;418.03;;;394.53;;
2636;SDS011;1328;52.486;9.860;2022-08-19T13:43:59;494.00;;;466.80;;
2636;SDS011;1328;52.486;9.860;2022-08-19T13:46:26;542.10;;;512.60;;
2636;SDS011;1328;52.486;9.860;2022-08-19T13:48:54;432.90;;;409.20;;
2636;SDS011;1328;52.486;9.860;2022-08-19T13:51:21;377.00;;;356.20;;
2636;SDS011;1328;52.486;9.860;2022-08-19T13:53:47;473.13;;;447.13;;
2636;SDS011;1328;52.486;9.860;2022-08-19T13:56:15;420.87;;;398.13;;
2636;SDS011;1328;52.486;9.860;2022-08-19T13:58:41;427.37;;;404.47;;
2636;SDS011;1328;52.486;9.860;2022-08-19T14:01:08;354.73;;;335.37;;
2636;SDS011;1328;52.486;9.860;2022-08-19T14:03:35;445.73;;;422.67;;
2636;SDS011;1328;52.486;9.860;2022-08-19T14:06:01;442.50;;;419.30;;
2636;SDS011;1328;52.486;9.860;2022-08-19T14:08:27;523.00;;;496.30;;
2636;SDS011;1328;52.486;9.860;2022-08-19T14:10:56;567.27;;;538.53;;
2636;SDS011;1328;52.486;9.860;2022-08-19T14:13:23;600.23;;;569.10;;
2636;SDS011;1328;52.486;9.860;2022-08-19T14:15:49;568.47;;;539.87;;
2636;SDS011;1328;52.486;9.860;2022-08-19T14:18:15;538.30;;;510.67;;
2636;SDS011;1328;52.486;9.860;2022-08-19T14:20:42;616.30;;;583.77;;
2636;SDS011;1328;52.486;9.860;2022-08-19T14:23:09;589.87;;;560.13;;
2636;SDS011;1328;52.486;9.860;2022-08-19T14:25:35;658.40;;;624.83;;
2636;SDS011;1328;52.486;9.860;2022-08-19T14:28:02;632.90;;;600.17;;
2636;SDS011;1328;52.486;9.860;2022-08-19T14:30:32;626.03;;;593.07;;
2636;SDS011;1328;52.486;9.860;2022-08-19T14:32:59;560.33;;;531.80;;
2636;SDS011;1328;52.486;9.860;2022-08-19T14:35:29;631.33;;;598.03;;
2636;SDS011;1328;52.486;9.860;2022-08-19T14:37:58;564.13;;;533.20;;
2636;SDS011;1328;52.486;9.860;2022-08-19T14:40:25;641.67;;;608.73;;